Time,TemperatureF,DewpointF,PressureIn,WindDirection,WindDirectionDegrees,WindSpeedMPH,WindSpeedGustMPH,Humidity,HourlyPrecipIn,Conditions,Clouds,dailyrainin,SoftwareType,DateUTC
2013-04-19 00:00:00,52.2,43.5,29.88,North,0,0.0,0.0,72,0.00,,,0.00,WUHU216HW,2013-04-19 04:00:00,
2013-04-19 00:01:00,52.2,43.8,29.88,North,0,0.0,0.0,73,0.00,,,0.00,WUHU216HW,2013-04-19 04:01:00,
2013-04-19 00:06:00,52.2,43.5,29.88,North,0,0.0,0.0,72,0.00,,,0.00,WUHU216HW,2013-04-19 04:06:00,
2013-04-19 00:11:00,52.2,43.5,29.88,North,0,0.0,0.0,72,0.00,,,0.00,WUHU216HW,2013-04-19 04:11:00,
2013-04-19 00:16:00,52.2,43.5,29.88,North,0,0.0,0.0,72,0.00,,,0.00,WUHU216HW,2013-04-19 04:16:00,
2013-04-19 00:21:00,52.2,43.5,29.87,North,0,0.0,0.0,72,0.00,,,0.00,WUHU216HW,2013-04-19 04:21:00,
2013-04-19 00:26:00,52.0,43.3,29.87,North,0,0.0,0.0,72,0.00,,,0.00,WUHU216HW,2013-04-19 04:26:00,
2013-04-19 00:31:00,52.0,43.3,29.87,North,0,0.0,0.0,72,0.00,,,0.00,WUHU216HW,2013-04-19 04:31:00,
2013-04-19 00:36:00,51.8,43.2,29.87,North,0,0.0,0.0,72,0.00,,,0.00,WUHU216HW,2013-04-19 04:36:00,
2013-04-19 00:41:00,51.8,43.2,29.87,North,0,0.0,0.0,72,0.00,,,0.00,WUHU216HW,2013-04-19 04:41:00,
2013-04-19 00:46:00,51.8,43.2,29.87,North,0,0.0,0.0,72,0.00,,,0.00,WUHU216HW,2013-04-19 04:46:00,
2013-04-19 00:51:00,51.8,43.2,29.86,North,0,0.0,0.0,72,0.00,,,0.00,WUHU216HW,2013-04-19 04:51:00,
2013-04-19 00:56:00,51.8,43.2,29.86,North,0,0.0,0.0,72,0.00,,,0.00,WUHU216HW,2013-04-19 04:56:00,
2013-04-19 01:01:00,51.7,43.0,29.85,North,0,0.0,0.0,72,0.00,,,0.00,WUHU216HW,2013-04-19 05:01:00,
2013-04-19 01:06:00,51.7,43.3,29.85,North,0,0.0,0.0,73,0.00,,,0.00,WUHU216HW,2013-04-19 05:06:00,
2013-04-19 01:12:00,51.7,43.3,29.85,North,0,0.0,0.0,73,0.00,,,0.00,WUHU216HW,2013-04-19 05:12:00,
2013-04-19 01:17:00,51.7,43.7,29.84,North,0,0.0,0.0,74,0.00,,,0.00,WUHU216HW,2013-04-19 05:17:00,
2013-04-19 01:22:00,51.5,43.8,29.83,North,0,0.0,0.0,75,0.00,,,0.00,WUHU216HW,2013-04-19 05:22:00,
2013-04-19 01:27:00,51.5,43.5,29.84,North,0,0.0,0.0,74,0.00,,,0.00,WUHU216HW,2013-04-19 05:27:00,
2013-04-19 01:32:00,51.5,43.8,29.83,North,0,0.0,0.0,75,0.00,,,0.00,WUHU216HW,2013-04-19 05:32:00,
2013-04-19 01:37:00,51.5,43.8,29.83,North,0,0.0,0.0,75,0.00,,,0.00,WUHU216HW,2013-04-19 05:37:00,
2013-04-19 01:42:00,51.5,44.2,29.83,North,0,0.0,0.0,76,0.00,,,0.00,WUHU216HW,2013-04-19 05:42:00,
2013-04-19 01:47:00,51.5,43.8,29.83,North,0,0.0,0.0,75,0.00,,,0.00,WUHU216HW,2013-04-19 05:47:00,
2013-04-19 01:52:00,51.5,43.8,29.82,North,0,0.0,0.0,75,0.00,,,0.00,WUHU216HW,2013-04-19 05:52:00,
2013-04-19 01:57:00,51.5,44.2,29.82,North,0,0.0,0.0,76,0.00,,,0.00,WUHU216HW,2013-04-19 05:57:00,
2013-04-19 02:02:00,51.5,44.2,29.82,North,0,0.0,0.0,76,0.00,,,0.00,WUHU216HW,2013-04-19 06:02:00,
2013-04-19 02:07:00,51.5,44.2,29.82,North,0,0.0,0.0,76,0.00,,,0.00,WUHU216HW,2013-04-19 06:07:00,
2013-04-19 02:12:00,51.5,44.2,29.82,North,0,0.0,0.0,76,0.00,,,0.00,WUHU216HW,2013-04-19 06:12:00,
2013-04-19 02:17:00,51.5,44.6,29.83,North,0,0.0,0.0,77,0.00,,,0.00,WUHU216HW,2013-04-19 06:17:00,
2013-04-19 02:22:00,51.5,44.6,29.83,North,0,0.0,0.0,77,0.00,,,0.00,WUHU216HW,2013-04-19 06:22:00,
2013-04-19 02:27:00,51.5,44.8,29.82,North,0,0.0,0.0,78,0.00,,,0.00,WUHU216HW,2013-04-19 06:27:00,
2013-04-19 02:32:00,51.5,44.8,29.83,North,0,0.0,0.0,78,0.00,,,0.00,WUHU216HW,2013-04-19 06:32:00,
2013-04-19 02:37:00,51.5,45.2,29.83,North,0,0.0,0.0,79,0.00,,,0.00,WUHU216HW,2013-04-19 06:37:00,
2013-04-19 02:42:00,51.3,45.0,29.82,North,0,0.0,0.0,79,0.00,,,0.00,WUHU216HW,2013-04-19 06:42:00,
2013-04-19 02:47:00,51.3,45.0,29.82,North,0,0.0,0.0,79,0.00,,,0.00,WUHU216HW,2013-04-19 06:47:00,
2013-04-19 02:52:00,51.1,45.2,29.82,North,0,0.0,0.0,80,0.00,,,0.00,WUHU216HW,2013-04-19 06:52:00,
2013-04-19 02:57:00,51.1,45.2,29.82,North,0,0.0,0.0,80,0.00,,,0.00,WUHU216HW,2013-04-19 06:57:00,
2013-04-19 03:02:00,50.9,45.0,29.82,North,0,0.0,0.0,80,0.00,,,0.00,WUHU216HW,2013-04-19 07:02:00,
2013-04-19 03:07:00,50.9,45.0,29.82,North,0,0.0,0.0,80,0.00,,,0.00,WUHU216HW,2013-04-19 07:07:00,
2013-04-19 03:12:00,50.9,45.3,29.81,North,0,0.0,0.0,81,0.00,,,0.00,WUHU216HW,2013-04-19 07:12:00,
2013-04-19 03:18:00,50.8,45.1,29.81,North,0,0.0,0.0,81,0.00,,,0.00,WUHU216HW,2013-04-19 07:18:00,
2013-04-19 03:23:00,50.8,45.5,29.80,North,0,0.0,0.0,82,0.00,,,0.00,WUHU216HW,2013-04-19 07:23:00,
2013-04-19 03:28:00,50.8,45.5,29.80,North,0,0.0,0.0,82,0.00,,,0.00,WUHU216HW,2013-04-19 07:28:00,
2013-04-19 03:33:00,50.8,45.5,29.80,North,0,0.0,0.0,82,0.00,,,0.00,WUHU216HW,2013-04-19 07:33:00,
2013-04-19 03:38:00,50.8,45.5,29.80,North,0,0.0,0.0,82,0.00,,,0.00,WUHU216HW,2013-04-19 07:38:00,
2013-04-19 03:43:00,50.8,45.5,29.80,North,0,0.0,0.0,82,0.00,,,0.00,WUHU216HW,2013-04-19 07:43:00,
2013-04-19 03:48:00,50.6,45.5,29.80,North,0,0.0,0.0,83,0.00,,,0.00,WUHU216HW,2013-04-19 07:48:00,
2013-04-19 03:53:00,50.6,45.5,29.79,North,0,0.0,0.0,83,0.00,,,0.00,WUHU216HW,2013-04-19 07:53:00,
2013-04-19 03:58:00,50.6,45.5,29.79,North,0,0.0,0.0,83,0.00,,,0.00,WUHU216HW,2013-04-19 07:58:00,
2013-04-19 04:03:00,50.4,45.4,29.79,North,0,0.0,0.0,83,0.00,,,0.00,WUHU216HW,2013-04-19 08:03:00,
2013-04-19 04:08:00,50.4,45.7,29.79,North,0,0.0,0.0,84,0.00,,,0.00,WUHU216HW,2013-04-19 08:08:00,
2013-04-19 04:13:00,50.4,45.7,29.78,North,0,0.0,0.0,84,0.00,,,0.00,WUHU216HW,2013-04-19 08:13:00,
2013-04-19 04:18:00,50.2,45.6,29.78,North,0,0.0,0.0,84,0.00,,,0.00,WUHU216HW,2013-04-19 08:18:00,
2013-04-19 04:24:00,50.2,45.6,29.77,North,0,0.0,0.0,84,0.00,,,0.00,WUHU216HW,2013-04-19 08:24:00,
2013-04-19 04:29:00,50.2,45.6,29.77,North,0,0.0,0.0,84,0.00,,,0.00,WUHU216HW,2013-04-19 08:29:00,
2013-04-19 04:34:00,50.2,45.6,29.77,North,0,0.0,0.0,84,0.00,,,0.00,WUHU216HW,2013-04-19 08:34:00,
2013-04-19 04:39:00,50.2,45.6,29.76,North,0,0.0,0.0,84,0.00,,,0.00,WUHU216HW,2013-04-19 08:39:00,
2013-04-19 04:44:00,50.4,46.0,29.76,North,0,0.0,0.0,85,0.00,,,0.00,WUHU216HW,2013-04-19 08:44:00,
2013-04-19 04:49:00,50.4,46.0,29.75,North,0,0.0,0.0,85,0.00,,,0.00,WUHU216HW,2013-04-19 08:49:00,
2013-04-19 04:54:00,50.4,46.0,29.74,North,0,0.0,0.0,85,0.00,,,0.00,WUHU216HW,2013-04-19 08:54:00,
2013-04-19 04:59:00,50.4,46.0,29.74,North,0,0.0,0.0,85,0.00,,,0.00,WUHU216HW,2013-04-19 08:59:00,
2013-04-19 05:04:00,50.6,46.4,29.73,North,0,0.0,0.0,86,0.00,,,0.00,WUHU216HW,2013-04-19 09:04:00,
2013-04-19 05:09:00,50.6,46.4,29.73,North,0,0.0,0.0,86,0.00,,,0.00,WUHU216HW,2013-04-19 09:09:00,
2013-04-19 05:14:00,50.8,47.0,29.73,North,0,0.0,0.0,87,0.00,,,0.00,WUHU216HW,2013-04-19 09:14:00,
2013-04-19 05:19:00,50.8,46.6,29.73,North,0,0.0,0.0,86,0.00,,,0.00,WUHU216HW,2013-04-19 09:19:00,
2013-04-19 05:24:00,50.9,47.2,29.73,North,0,0.0,0.0,87,0.00,,,0.00,WUHU216HW,2013-04-19 09:24:00,
2013-04-19 05:29:00,50.9,47.2,29.74,North,0,0.0,0.0,87,0.00,,,0.00,WUHU216HW,2013-04-19 09:29:00,
2013-04-19 05:34:00,51.1,47.4,29.74,North,0,0.0,0.0,87,0.00,,,0.00,WUHU216HW,2013-04-19 09:34:00,
2013-04-19 05:39:00,51.1,47.4,29.74,North,0,0.0,0.0,87,0.00,,,0.00,WUHU216HW,2013-04-19 09:39:00,
2013-04-19 06:00:00,51.3,47.2,29.76,North,0,0.0,0.0,86,0.00,,,0.00,WUHU216HW,2013-04-19 10:00:00,
2013-04-19 06:05:00,51.5,47.7,29.76,North,0,0.0,0.0,87,0.00,,,0.00,WUHU216HW,2013-04-19 10:05:00,
2013-04-19 06:10:00,51.7,47.9,29.76,North,0,0.0,0.0,87,0.00,,,0.00,WUHU216HW,2013-04-19 10:10:00,
2013-04-19 06:15:00,51.8,48.1,29.75,North,0,0.0,0.0,87,0.00,,,0.00,WUHU216HW,2013-04-19 10:15:00,
2013-04-19 06:20:00,52.0,48.5,29.75,North,0,0.0,0.0,88,0.00,,,0.00,WUHU216HW,2013-04-19 10:20:00,
2013-04-19 06:25:00,52.2,48.7,29.75,North,0,0.0,0.0,88,0.00,,,0.00,WUHU216HW,2013-04-19 10:25:00,
2013-04-19 06:30:00,52.2,48.7,29.75,North,0,0.0,0.0,88,0.00,,,0.00,WUHU216HW,2013-04-19 10:30:00,
2013-04-19 06:35:00,52.4,49.2,29.75,North,0,0.0,0.0,89,0.00,,,0.00,WUHU216HW,2013-04-19 10:35:00,
2013-04-19 06:40:00,52.4,49.2,29.75,North,0,0.0,0.0,89,0.00,,,0.00,WUHU216HW,2013-04-19 10:40:00,
2013-04-19 07:00:00,53.1,50.0,29.74,North,0,0.0,0.0,89,0.00,,,0.00,WUHU216HW,2013-04-19 11:00:00,
2013-04-19 07:05:00,53.1,50.0,29.74,North,0,0.0,0.0,89,0.00,,,0.00,WUHU216HW,2013-04-19 11:05:00,
2013-04-19 07:10:00,53.1,50.0,29.74,North,0,0.0,0.0,89,0.00,,,0.00,WUHU216HW,2013-04-19 11:10:00,
2013-04-19 07:15:00,53.1,50.0,29.74,North,0,0.0,0.0,89,0.00,,,0.00,WUHU216HW,2013-04-19 11:15:00,
2013-04-19 07:20:00,53.3,50.1,29.74,North,0,0.0,0.0,89,0.00,,,0.00,WUHU216HW,2013-04-19 11:20:00,
2013-04-19 07:25:00,53.3,49.8,29.74,North,0,0.0,0.0,88,0.00,,,0.00,WUHU216HW,2013-04-19 11:25:00,
2013-04-19 07:30:00,53.3,49.8,29.73,North,0,0.0,0.0,88,0.00,,,0.00,WUHU216HW,2013-04-19 11:30:00,
2013-04-19 07:35:00,53.5,50.0,29.73,North,0,0.0,0.0,88,0.00,,,0.00,WUHU216HW,2013-04-19 11:35:00,
2013-04-19 07:40:00,53.6,50.1,29.72,North,0,0.0,0.0,88,0.00,,,0.00,WUHU216HW,2013-04-19 11:40:00,
2013-04-19 07:45:00,53.6,50.1,29.72,North,0,0.0,0.0,88,0.00,,,0.00,WUHU216HW,2013-04-19 11:45:00,
2013-04-19 07:50:00,53.8,50.3,29.72,North,0,0.0,0.0,88,0.00,,,0.00,WUHU216HW,2013-04-19 11:50:00,
2013-04-19 07:55:00,54.2,50.7,29.72,North,0,0.0,0.0,88,0.00,,,0.00,WUHU216HW,2013-04-19 11:55:00,
2013-04-19 08:00:00,54.5,51.0,29.72,North,0,0.0,0.0,88,0.00,,,0.00,WUHU216HW,2013-04-19 12:00:00,
2013-04-19 08:05:00,54.7,51.2,29.72,North,0,0.0,0.0,88,0.00,,,0.00,WUHU216HW,2013-04-19 12:05:00,
2013-04-19 08:10:00,55.1,51.6,29.72,North,0,0.0,0.0,88,0.00,,,0.00,WUHU216HW,2013-04-19 12:10:00,
2013-04-19 08:15:00,55.1,51.6,29.72,North,0,0.0,0.0,88,0.00,,,0.00,WUHU216HW,2013-04-19 12:15:00,
2013-04-19 08:20:00,55.3,51.8,29.72,North,0,0.0,0.0,88,0.00,,,0.00,WUHU216HW,2013-04-19 12:20:00,
2013-04-19 08:25:00,55.4,51.9,29.72,North,0,0.0,0.0,88,0.00,,,0.00,WUHU216HW,2013-04-19 12:25:00,
2013-04-19 08:30:00,55.8,52.6,29.73,North,0,0.0,0.0,89,0.00,,,0.00,WUHU216HW,2013-04-19 12:30:00,
2013-04-19 08:35:00,55.8,52.6,29.73,North,0,0.0,0.0,89,0.00,,,0.00,WUHU216HW,2013-04-19 12:35:00,
2013-04-19 08:40:00,55.8,52.6,29.73,North,0,0.0,0.0,89,0.00,,,0.00,WUHU216HW,2013-04-19 12:40:00,
2013-04-19 09:00:00,57.2,54.0,29.72,North,0,0.0,0.0,89,0.00,,,0.00,WUHU216HW,2013-04-19 13:00:00,
2013-04-19 09:05:00,57.4,54.2,29.71,North,0,0.0,0.0,89,0.00,,,0.00,WUHU216HW,2013-04-19 13:05:00,
2013-04-19 09:10:00,57.8,54.5,29.71,North,0,0.0,0.0,89,0.00,,,0.00,WUHU216HW,2013-04-19 13:10:00,
2013-04-19 09:15:00,58.1,54.9,29.71,North,0,0.0,0.0,89,0.00,,,0.00,WUHU216HW,2013-04-19 13:15:00,
2013-04-19 09:20:00,58.3,55.1,29.70,North,0,0.0,0.0,89,0.00,,,0.00,WUHU216HW,2013-04-19 13:20:00,
2013-04-19 09:25:00,58.5,55.3,29.70,North,0,0.0,0.0,89,0.00,,,0.00,WUHU216HW,2013-04-19 13:25:00,
2013-04-19 09:30:00,58.9,55.4,29.70,North,0,0.0,0.0,88,0.00,,,0.00,WUHU216HW,2013-04-19 13:30:00,
2013-04-19 09:35:00,59.6,56.1,29.70,North,0,0.0,0.0,88,0.00,,,0.00,WUHU216HW,2013-04-19 13:35:00,
2013-04-19 09:40:00,60.1,56.3,29.70,North,0,0.0,0.0,87,0.00,,,0.00,WUHU216HW,2013-04-19 13:40:00,
2013-04-19 09:45:00,61.0,57.2,29.69,North,0,0.0,0.0,87,0.00,,,0.00,WUHU216HW,2013-04-19 13:45:00,
2013-04-19 09:50:00,62.3,57.3,29.69,North,0,0.0,0.0,84,0.00,,,0.00,WUHU216HW,2013-04-19 13:50:00,
2013-04-19 09:55:00,63.2,57.3,29.69,North,0,0.0,0.0,81,0.00,,,0.00,WUHU216HW,2013-04-19 13:55:00,
2013-04-19 10:00:00,63.7,57.1,29.70,North,0,0.0,0.0,79,0.00,,,0.00,WUHU216HW,2013-04-19 14:00:00,
2013-04-19 10:05:00,63.7,57.1,29.69,North,0,0.0,0.0,79,0.00,,,0.00,WUHU216HW,2013-04-19 14:05:00,
2013-04-19 10:10:00,64.1,57.4,29.69,North,0,0.0,0.0,79,0.00,,,0.00,WUHU216HW,2013-04-19 14:10:00,
2013-04-19 10:15:00,64.1,56.7,29.69,North,0,0.0,0.0,77,0.00,,,0.00,WUHU216HW,2013-04-19 14:15:00,
2013-04-19 10:20:00,63.9,56.9,29.69,North,0,0.0,0.0,78,0.00,,,0.00,WUHU216HW,2013-04-19 14:20:00,
2013-04-19 10:25:00,64.1,57.1,29.69,North,0,0.0,0.0,78,0.00,,,0.00,WUHU216HW,2013-04-19 14:25:00,
2013-04-19 10:30:00,63.7,56.7,29.69,North,0,0.0,0.0,78,0.00,,,0.00,WUHU216HW,2013-04-19 14:30:00,
2013-04-19 10:35:00,63.7,57.1,29.69,North,0,0.0,0.0,79,0.00,,,0.00,WUHU216HW,2013-04-19 14:35:00,
2013-04-19 10:40:00,64.1,57.4,29.68,North,0,0.0,0.0,79,0.00,,,0.00,WUHU216HW,2013-04-19 14:40:00,
2013-04-19 10:45:00,65.2,58.5,29.68,North,0,0.0,0.0,79,0.00,,,0.00,WUHU216HW,2013-04-19 14:45:00,
2013-04-19 10:50:00,65.9,58.1,29.68,North,0,0.0,0.0,76,0.00,,,0.00,WUHU216HW,2013-04-19 14:50:00,
2013-04-19 10:56:00,66.1,58.2,29.68,North,0,0.0,0.0,76,0.00,,,0.00,WUHU216HW,2013-04-19 14:56:00,
2013-04-19 11:01:00,65.7,57.5,29.67,North,0,0.0,0.0,75,0.00,,,0.00,WUHU216HW,2013-04-19 15:01:00,
2013-04-19 11:06:00,65.5,57.3,29.67,North,0,0.0,0.0,75,0.00,,,0.00,WUHU216HW,2013-04-19 15:06:00,
2013-04-19 11:11:00,65.5,57.8,29.66,North,0,0.0,0.0,76,0.00,,,0.00,WUHU216HW,2013-04-19 15:11:00,
2013-04-19 11:16:00,65.7,57.5,29.66,North,0,0.0,0.0,75,0.00,,,0.00,WUHU216HW,2013-04-19 15:16:00,
2013-04-19 11:21:00,65.9,57.7,29.66,North,0,0.0,0.0,75,0.00,,,0.00,WUHU216HW,2013-04-19 15:21:00,
2013-04-19 11:26:00,66.4,58.2,29.65,North,0,0.0,0.0,75,0.00,,,0.00,WUHU216HW,2013-04-19 15:26:00,
2013-04-19 11:31:00,67.0,58.4,29.65,North,0,0.0,0.0,74,0.00,,,0.00,WUHU216HW,2013-04-19 15:31:00,
2013-04-19 11:36:00,67.3,58.8,29.65,North,0,0.0,0.0,74,0.00,,,0.00,WUHU216HW,2013-04-19 15:36:00,
2013-04-19 11:41:00,67.7,58.3,29.65,North,0,0.0,0.0,72,0.00,,,0.00,WUHU216HW,2013-04-19 15:41:00,
2013-04-19 11:45:00,67.7,58.3,29.65,North,0,0.0,0.0,72,0.00,,,0.00,WUHU216HW,2013-04-19 15:45:00,
2013-04-19 11:50:00,67.9,58.1,29.65,North,0,0.0,0.0,71,0.00,,,0.00,WUHU216HW,2013-04-19 15:50:00,
2013-04-19 11:55:00,68.0,58.7,29.65,North,0,0.0,0.0,72,0.00,,,0.00,WUHU216HW,2013-04-19 15:55:00,
2013-04-19 12:00:00,68.2,58.5,29.64,North,0,0.0,0.0,71,0.00,,,0.00,WUHU216HW,2013-04-19 16:00:00,
2013-04-19 12:05:00,68.2,58.2,29.64,North,0,0.0,0.0,70,0.00,,,0.00,WUHU216HW,2013-04-19 16:05:00,
2013-04-19 12:10:00,67.7,58.0,29.64,North,0,0.0,0.0,71,0.00,,,0.00,WUHU216HW,2013-04-19 16:10:00,
2013-04-19 12:15:00,67.9,58.1,29.64,North,0,0.0,0.0,71,0.00,,,0.00,WUHU216HW,2013-04-19 16:15:00,
2013-04-19 12:21:00,67.9,58.5,29.64,North,0,0.0,0.0,72,0.00,,,0.00,WUHU216HW,2013-04-19 16:21:00,
2013-04-19 12:26:00,68.0,58.3,29.63,North,0,0.0,0.0,71,0.00,,,0.00,WUHU216HW,2013-04-19 16:26:00,
2013-04-19 12:31:00,68.4,59.0,29.63,North,0,0.0,0.0,72,0.00,,,0.00,WUHU216HW,2013-04-19 16:31:00,
2013-04-19 12:36:00,68.6,58.9,29.63,North,0,0.0,0.0,71,0.00,,,0.00,WUHU216HW,2013-04-19 16:36:00,
2013-04-19 12:41:00,68.6,58.9,29.63,North,0,0.0,0.0,71,0.00,,,0.00,WUHU216HW,2013-04-19 16:41:00,
2013-04-19 13:00:00,70.2,59.5,29.61,North,0,0.0,0.0,69,0.00,,,0.00,WUHU216HW,2013-04-19 17:00:00,
2013-04-19 13:05:00,70.6,59.5,29.61,North,0,0.0,0.0,68,0.00,,,0.00,WUHU216HW,2013-04-19 17:05:00,
2013-04-19 13:10:00,70.2,59.1,29.61,North,0,0.0,0.0,68,0.00,,,0.00,WUHU216HW,2013-04-19 17:10:00,
2013-04-19 13:15:00,70.2,59.5,29.60,North,0,0.0,0.0,69,0.00,,,0.00,WUHU216HW,2013-04-19 17:15:00,
2013-04-19 13:20:00,71.1,60.4,29.60,North,0,0.0,0.0,69,0.00,,,0.00,WUHU216HW,2013-04-19 17:20:00,
2013-04-19 13:25:00,71.5,60.0,29.59,North,0,0.0,0.0,67,0.00,,,0.00,WUHU216HW,2013-04-19 17:25:00,
2013-04-19 13:30:00,71.1,59.6,29.59,North,0,0.0,0.0,67,0.00,,,0.00,WUHU216HW,2013-04-19 17:30:00,
2013-04-19 13:35:00,70.9,59.9,29.59,North,0,0.0,0.0,68,0.00,,,0.00,WUHU216HW,2013-04-19 17:35:00,
2013-04-19 13:40:00,70.7,59.2,29.59,North,0,0.0,0.0,67,0.00,,,0.00,WUHU216HW,2013-04-19 17:40:00,
2013-04-19 13:45:00,70.7,59.7,29.59,North,0,0.0,0.0,68,0.00,,,0.00,WUHU216HW,2013-04-19 17:45:00,
2013-04-19 13:50:00,70.9,59.9,29.58,North,0,0.0,0.0,68,0.00,,,0.00,WUHU216HW,2013-04-19 17:50:00,
2013-04-19 13:55:00,70.9,59.9,29.57,North,0,0.0,0.0,68,0.00,,,0.00,WUHU216HW,2013-04-19 17:55:00,
2013-04-19 14:00:00,71.1,59.6,29.56,North,0,0.0,0.0,67,0.00,,,0.00,WUHU216HW,2013-04-19 18:00:00,
2013-04-19 14:05:00,71.3,60.6,29.57,North,0,0.0,0.0,69,0.00,,,0.00,WUHU216HW,2013-04-19 18:05:00,
2013-04-19 14:10:00,71.5,60.3,29.57,North,0,0.0,0.0,68,0.00,,,0.00,WUHU216HW,2013-04-19 18:10:00,
2013-04-19 14:16:00,71.3,59.8,29.58,North,0,0.0,0.0,67,0.00,,,0.00,WUHU216HW,2013-04-19 18:16:00,
2013-04-19 14:21:00,70.9,59.9,29.57,North,0,0.0,0.0,68,0.00,,,0.00,WUHU216HW,2013-04-19 18:21:00,
2013-04-19 14:26:00,70.4,59.3,29.57,North,0,0.0,0.0,68,0.00,,,0.00,WUHU216HW,2013-04-19 18:26:00,
2013-04-19 14:31:00,70.2,59.5,29.57,North,0,0.0,0.0,69,0.00,,,0.00,WUHU216HW,2013-04-19 18:31:00,
2013-04-19 14:36:00,70.0,59.3,29.56,North,0,0.0,0.0,69,0.00,,,0.00,WUHU216HW,2013-04-19 18:36:00,
2013-04-19 14:41:00,70.0,59.3,29.56,North,0,0.0,0.0,69,0.00,,,0.00,WUHU216HW,2013-04-19 18:41:00,
2013-04-19 14:46:00,70.0,59.8,29.56,North,0,0.0,0.0,70,0.00,,,0.00,WUHU216HW,2013-04-19 18:46:00,
2013-04-19 14:51:00,69.8,59.1,29.55,North,0,0.0,0.0,69,0.00,,,0.00,WUHU216HW,2013-04-19 18:51:00,
2013-04-19 14:56:00,69.8,59.1,29.55,North,0,0.0,0.0,69,0.00,,,0.00,WUHU216HW,2013-04-19 18:56:00,
2013-04-19 15:01:00,69.7,59.1,29.55,North,0,0.0,0.0,69,0.00,,,0.00,WUHU216HW,2013-04-19 19:01:00,
2013-04-19 15:06:00,69.7,59.1,29.55,North,0,0.0,0.0,69,0.00,,,0.00,WUHU216HW,2013-04-19 19:06:00,
2013-04-19 15:11:00,69.7,59.4,29.54,North,0,0.0,0.0,70,0.00,,,0.00,WUHU216HW,2013-04-19 19:11:00,
2013-04-19 15:16:00,69.5,59.2,29.54,North,0,0.0,0.0,70,0.00,,,0.00,WUHU216HW,2013-04-19 19:16:00,
2013-04-19 15:21:00,69.5,59.2,29.54,North,0,0.0,0.0,70,0.00,,,0.00,WUHU216HW,2013-04-19 19:21:00,
2013-04-19 15:26:00,69.5,59.2,29.54,North,0,0.0,0.0,70,0.00,,,0.00,WUHU216HW,2013-04-19 19:26:00,
2013-04-19 15:31:00,69.3,59.9,29.54,North,0,0.0,0.0,72,0.00,,,0.00,WUHU216HW,2013-04-19 19:31:00,
2013-04-19 15:36:00,68.8,59.8,29.54,North,0,0.0,0.0,73,0.00,,,0.00,WUHU216HW,2013-04-19 19:36:00,
2013-04-19 15:41:00,68.6,60.3,29.54,North,0,0.0,0.0,75,0.00,,,0.00,WUHU216HW,2013-04-19 19:41:00,
2013-04-19 15:46:00,68.2,60.4,29.53,North,0,0.0,0.0,76,0.00,,,0.00,WUHU216HW,2013-04-19 19:46:00,
2013-04-19 15:51:00,67.9,60.4,29.53,North,0,0.0,0.0,77,0.00,,,0.00,WUHU216HW,2013-04-19 19:51:00,
2013-04-19 15:56:00,67.5,60.5,29.53,North,0,0.0,0.0,78,0.00,,,0.00,WUHU216HW,2013-04-19 19:56:00,
2013-04-19 16:01:00,67.7,61.0,29.52,North,0,0.0,0.0,79,0.00,,,0.00,WUHU216HW,2013-04-19 20:01:00,
2013-04-19 16:06:00,68.4,61.7,29.52,North,0,0.0,0.0,79,0.00,,,0.00,WUHU216HW,2013-04-19 20:06:00,
2013-04-19 16:11:00,68.9,61.0,29.51,North,0,0.0,0.0,76,0.00,,,0.00,WUHU216HW,2013-04-19 20:11:00,
2013-04-19 16:16:00,69.3,61.0,29.51,North,0,0.0,0.0,75,0.00,,,0.00,WUHU216HW,2013-04-19 20:16:00,
2013-04-19 16:21:00,69.7,60.9,29.50,North,0,0.0,0.0,74,0.00,,,0.00,WUHU216HW,2013-04-19 20:21:00,
2013-04-19 16:26:00,69.8,60.8,29.50,North,0,0.0,0.0,73,0.00,,,0.00,WUHU216HW,2013-04-19 20:26:00,
2013-04-19 16:31:00,69.8,60.8,29.49,North,0,0.0,0.0,73,0.00,,,0.00,WUHU216HW,2013-04-19 20:31:00,
2013-04-19 16:37:00,69.7,60.2,29.49,North,0,0.0,0.0,72,0.00,,,0.00,WUHU216HW,2013-04-19 20:37:00,
2013-04-19 16:42:00,69.7,60.2,29.49,North,0,0.0,0.0,72,0.00,,,0.00,WUHU216HW,2013-04-19 20:42:00,
2013-04-19 16:47:00,69.8,59.9,29.48,North,0,0.0,0.0,71,0.00,,,0.00,WUHU216HW,2013-04-19 20:47:00,
2013-04-19 16:52:00,69.8,60.3,29.48,North,0,0.0,0.0,72,0.00,,,0.00,WUHU216HW,2013-04-19 20:52:00,
2013-04-19 16:57:00,70.2,60.3,29.48,North,0,0.0,0.0,71,0.00,,,0.00,WUHU216HW,2013-04-19 20:57:00,
2013-04-19 17:02:00,70.4,60.5,29.48,North,0,0.0,0.0,71,0.00,,,0.00,WUHU216HW,2013-04-19 21:02:00,
2013-04-19 17:07:00,70.4,60.5,29.48,North,0,0.0,0.0,71,0.00,,,0.00,WUHU216HW,2013-04-19 21:07:00,
2013-04-19 17:12:00,70.4,60.8,29.47,North,0,0.0,0.0,72,0.00,,,0.00,WUHU216HW,2013-04-19 21:12:00,
2013-04-19 17:17:00,70.6,60.7,29.47,North,0,0.0,0.0,71,0.00,,,0.00,WUHU216HW,2013-04-19 21:17:00,
2013-04-19 17:22:00,70.6,60.7,29.46,North,0,0.0,0.0,71,0.00,,,0.00,WUHU216HW,2013-04-19 21:22:00,
2013-04-19 17:27:00,70.4,60.8,29.46,North,0,0.0,0.0,72,0.00,,,0.00,WUHU216HW,2013-04-19 21:27:00,
2013-04-19 17:32:00,69.8,60.8,29.46,North,0,0.0,0.0,73,0.00,,,0.00,WUHU216HW,2013-04-19 21:32:00,
2013-04-19 17:37:00,69.7,60.6,29.46,North,0,0.0,0.0,73,0.00,,,0.00,WUHU216HW,2013-04-19 21:37:00,
2013-04-19 17:42:00,69.5,60.8,29.46,North,0,0.0,0.0,74,0.00,,,0.00,WUHU216HW,2013-04-19 21:42:00,
2013-04-19 17:47:00,69.3,60.6,29.46,North,0,0.0,0.0,74,0.00,,,0.00,WUHU216HW,2013-04-19 21:47:00,
2013-04-19 17:52:00,69.3,60.6,29.46,North,0,0.0,0.0,74,0.00,,,0.00,WUHU216HW,2013-04-19 21:52:00,
2013-04-19 17:57:00,69.1,60.5,29.46,North,0,0.0,0.0,74,0.00,,,0.00,WUHU216HW,2013-04-19 21:57:00,
2013-04-19 18:02:00,68.8,60.5,29.45,North,0,0.0,0.0,75,0.00,,,0.00,WUHU216HW,2013-04-19 22:02:00,
2013-04-19 18:07:00,68.6,60.8,29.45,North,0,0.0,0.0,76,0.00,,,0.00,WUHU216HW,2013-04-19 22:07:00,
2013-04-19 18:12:00,68.0,60.2,29.45,North,0,0.0,0.0,76,0.00,,,0.00,WUHU216HW,2013-04-19 22:12:00,
2013-04-19 18:17:00,67.9,60.4,29.44,North,0,0.0,0.0,77,0.00,,,0.00,WUHU216HW,2013-04-19 22:17:00,
2013-04-19 18:22:00,67.7,60.2,29.44,North,0,0.0,0.0,77,0.00,,,0.00,WUHU216HW,2013-04-19 22:22:00,
2013-04-19 18:27:00,67.5,60.0,29.43,North,0,0.0,0.0,77,0.00,,,0.00,WUHU216HW,2013-04-19 22:27:00,
2013-04-19 18:32:00,67.3,59.9,29.42,North,0,0.0,0.0,77,0.00,,,0.00,WUHU216HW,2013-04-19 22:32:00,
2013-04-19 18:37:00,67.3,60.3,29.43,North,0,0.0,0.0,78,0.00,,,0.00,WUHU216HW,2013-04-19 22:37:00,
2013-04-19 18:42:00,67.3,60.3,29.43,North,0,0.0,0.0,78,0.00,,,0.00,WUHU216HW,2013-04-19 22:42:00,
2013-04-19 18:47:00,67.3,60.3,29.43,North,0,0.0,0.0,78,0.00,,,0.00,WUHU216HW,2013-04-19 22:47:00,
2013-04-19 19:00:00,67.1,60.5,29.45,North,0,0.0,0.0,79,0.00,,,0.00,WUHU216HW,2013-04-19 23:00:00,
2013-04-19 19:05:00,67.0,60.3,29.45,North,0,0.0,0.0,79,0.00,,,0.00,WUHU216HW,2013-04-19 23:05:00,
2013-04-19 19:10:00,67.0,60.7,29.45,North,0,0.0,0.0,80,0.00,,,0.00,WUHU216HW,2013-04-19 23:10:00,
2013-04-19 19:15:00,66.8,60.5,29.45,North,0,0.0,0.0,80,0.00,,,0.00,WUHU216HW,2013-04-19 23:15:00,
2013-04-19 19:20:00,66.8,60.5,29.45,North,0,0.0,0.0,80,0.00,,,0.00,WUHU216HW,2013-04-19 23:20:00,
2013-04-19 19:25:00,66.6,60.3,29.45,North,0,0.0,0.0,80,0.00,,,0.00,WUHU216HW,2013-04-19 23:25:00,
2013-04-19 19:30:00,66.6,60.7,29.45,North,0,0.0,0.0,81,0.00,,,0.00,WUHU216HW,2013-04-19 23:30:00,
2013-04-19 19:35:00,66.6,60.3,29.45,North,0,0.0,0.0,80,0.00,,,0.00,WUHU216HW,2013-04-19 23:35:00,
2013-04-19 19:40:00,66.6,60.3,29.45,North,0,0.0,0.0,80,0.00,,,0.00,WUHU216HW,2013-04-19 23:40:00,
2013-04-19 20:00:00,66.2,60.6,29.45,North,0,0.0,0.0,82,0.00,,,0.00,WUHU216HW,2013-04-20 00:00:00,
2013-04-19 20:05:00,66.2,60.6,29.45,North,0,0.0,0.0,82,0.00,,,0.00,WUHU216HW,2013-04-20 00:05:00,
2013-04-19 20:10:00,66.2,60.3,29.45,North,0,0.0,0.0,81,0.00,,,0.00,WUHU216HW,2013-04-20 00:10:00,
2013-04-19 20:15:00,66.2,60.3,29.44,North,0,0.0,0.0,81,0.00,,,0.00,WUHU216HW,2013-04-20 00:15:00,
2013-04-19 20:20:00,66.2,60.3,29.44,North,0,0.0,0.0,81,0.00,,,0.00,WUHU216HW,2013-04-20 00:20:00,
2013-04-19 20:25:00,66.2,59.9,29.44,North,0,0.0,0.0,80,0.00,,,0.00,WUHU216HW,2013-04-20 00:25:00,
2013-04-19 20:30:00,66.1,59.8,29.43,North,0,0.0,0.0,80,0.00,,,0.00,WUHU216HW,2013-04-20 00:30:00,
2013-04-19 20:35:00,66.1,60.1,29.43,North,0,0.0,0.0,81,0.00,,,0.00,WUHU216HW,2013-04-20 00:35:00,
2013-04-19 20:40:00,66.1,60.1,29.43,North,0,0.0,0.0,81,0.00,,,0.00,WUHU216HW,2013-04-20 00:40:00,
2013-04-19 20:45:00,65.9,60.0,29.43,North,0,0.0,0.0,81,0.00,,,0.00,WUHU216HW,2013-04-20 00:45:00,
2013-04-19 20:50:00,65.9,60.0,29.43,North,0,0.0,0.0,81,0.00,,,0.00,WUHU216HW,2013-04-20 00:50:00,
2013-04-19 21:00:00,65.9,60.0,29.43,North,0,0.0,0.0,81,0.00,,,0.00,WUHU216HW,2013-04-20 01:00:00,
2013-04-19 21:05:00,65.7,59.8,29.43,North,0,0.0,0.0,81,0.00,,,0.00,WUHU216HW,2013-04-20 01:05:00,
2013-04-19 21:10:00,65.7,59.8,29.43,North,0,0.0,0.0,81,0.00,,,0.00,WUHU216HW,2013-04-20 01:10:00,
2013-04-19 21:15:00,65.5,59.6,29.43,North,0,0.0,0.0,81,0.00,,,0.00,WUHU216HW,2013-04-20 01:15:00,
2013-04-19 21:20:00,65.5,59.6,29.43,North,0,0.0,0.0,81,0.00,,,0.00,WUHU216HW,2013-04-20 01:20:00,
2013-04-19 21:25:00,65.5,59.9,29.43,North,0,0.0,0.0,82,0.00,,,0.00,WUHU216HW,2013-04-20 01:25:00,
2013-04-19 21:30:00,65.3,59.7,29.43,North,0,0.0,0.0,82,0.00,,,0.00,WUHU216HW,2013-04-20 01:30:00,
2013-04-19 21:35:00,65.3,59.7,29.43,North,0,0.0,0.0,82,0.00,,,0.00,WUHU216HW,2013-04-20 01:35:00,
2013-04-19 21:40:00,65.3,59.7,29.42,North,0,0.0,0.0,82,0.00,,,0.00,WUHU216HW,2013-04-20 01:40:00,
2013-04-19 21:45:00,65.3,60.0,29.42,North,0,0.0,0.0,83,0.00,,,0.00,WUHU216HW,2013-04-20 01:45:00,
2013-04-19 21:50:00,65.3,60.0,29.42,North,0,0.0,0.0,83,0.00,,,0.00,WUHU216HW,2013-04-20 01:50:00,
2013-04-19 21:55:00,65.3,60.0,29.42,North,0,0.0,0.0,83,0.00,,,0.00,WUHU216HW,2013-04-20 01:55:00,
2013-04-19 22:00:00,65.2,60.2,29.41,North,0,0.0,0.0,84,0.00,,,0.00,WUHU216HW,2013-04-20 02:00:00,
2013-04-19 22:05:00,65.2,60.2,29.40,North,0,0.0,0.0,84,0.00,,,0.00,WUHU216HW,2013-04-20 02:05:00,
2013-04-19 22:10:00,65.0,60.0,29.40,North,0,0.0,0.0,84,0.00,,,0.00,WUHU216HW,2013-04-20 02:10:00,
2013-04-19 22:15:00,65.0,60.0,29.40,North,0,0.0,0.0,84,0.00,,,0.00,WUHU216HW,2013-04-20 02:15:00,
2013-04-19 22:20:00,65.0,60.0,29.40,North,0,0.0,0.0,84,0.00,,,0.00,WUHU216HW,2013-04-20 02:20:00,
2013-04-19 22:25:00,65.0,60.0,29.39,North,0,0.0,0.0,84,0.00,,,0.00,WUHU216HW,2013-04-20 02:25:00,
2013-04-19 22:30:00,64.8,60.6,29.39,North,0,0.0,0.0,86,0.00,,,0.00,WUHU216HW,2013-04-20 02:30:00,
2013-04-19 22:35:00,64.4,59.9,29.39,North,0,0.0,0.0,85,0.00,,,0.00,WUHU216HW,2013-04-20 02:35:00,
2013-04-19 22:40:00,64.6,60.0,29.39,North,0,0.0,0.0,85,0.00,,,0.00,WUHU216HW,2013-04-20 02:40:00,
2013-04-19 22:46:00,64.6,60.0,29.39,North,0,0.0,0.0,85,0.00,,,0.00,WUHU216HW,2013-04-20 02:46:00,
2013-04-19 22:51:00,64.6,60.4,29.40,North,0,0.0,0.0,86,0.00,,,0.00,WUHU216HW,2013-04-20 02:51:00,
2013-04-19 22:56:00,64.6,60.4,29.40,North,0,0.0,0.0,86,0.01,,,0.00,WUHU216HW,2013-04-20 02:56:00,
2013-04-19 23:01:00,64.4,60.6,29.41,North,0,0.0,0.0,87,0.04,,,0.04,WUHU216HW,2013-04-20 03:01:00,
2013-04-19 23:06:00,64.1,60.2,29.41,North,0,0.0,0.0,87,0.06,,,0.06,WUHU216HW,2013-04-20 03:06:00,
2013-04-19 23:11:00,63.9,60.3,29.41,North,0,0.0,0.0,88,0.06,,,0.06,WUHU216HW,2013-04-20 03:11:00,
2013-04-19 23:16:00,63.7,60.5,29.41,North,0,0.0,0.0,89,0.06,,,0.06,WUHU216HW,2013-04-20 03:16:00,
2013-04-19 23:21:00,63.7,60.5,29.43,North,0,0.0,0.0,89,0.09,,,0.06,WUHU216HW,2013-04-20 03:21:00,
2013-04-19 23:26:00,63.5,60.3,29.43,North,0,0.0,0.0,89,0.10,,,0.10,WUHU216HW,2013-04-20 03:26:00,
2013-04-19 23:31:00,62.8,59.0,29.43,North,0,0.0,0.0,87,0.11,,,0.10,WUHU216HW,2013-04-20 03:31:00,
2013-04-19 23:36:00,62.6,58.8,29.42,North,0,0.0,0.0,87,0.12,,,0.11,WUHU216HW,2013-04-20 03:36:00,
2013-04-19 23:41:00,62.6,58.8,29.42,North,0,0.0,0.0,87,0.12,,,0.11,WUHU216HW,2013-04-20 03:41:00,